N6725T EDFC-LFKJ
Flight info
| Callsign | N6725T |
|---|---|
| Flight time | N/A |
| Altitude | 18000 |
| Route | OMOGI DCT TITIX/N0226F170 N850 ODINA DCT ERTEV DCT TORTU |
| Aircraft | B58T/L-SDFGRY/C |
Departure
| Time | N/A |
|---|---|
| Airport | Aschaffenburg Airfield (EDFC) |
Arrival
| Time | 2026-05-06 20:09 |
|---|---|
| Airport | Ajaccio Napoléon Bonaparte airport (LFKJ) |
| Time | Latitude | Longitude | Altitude | Speed | Heading |
|---|---|---|---|---|---|
| 2026-05-06 18:35 | 46.51737 | 8.60683 | 17914 ft | 211 kts | 178° |
| 2026-05-06 18:35 | 46.50284 | 8.60890 | 17904 ft | 209 kts | 178° |
| 2026-05-06 18:35 | 46.48843 | 8.61095 | 17919 ft | 208 kts | 178° |
| 2026-05-06 18:36 | 46.47403 | 8.61300 | 17911 ft | 207 kts | 178° |
| 2026-05-06 18:36 | 46.45976 | 8.61501 | 17903 ft | 205 kts | 178° |
| 2026-05-06 18:36 | 46.44558 | 8.61702 | 17910 ft | 204 kts | 178° |
| 2026-05-06 18:36 | 46.43146 | 8.61902 | 17919 ft | 204 kts | 178° |
| 2026-05-06 18:37 | 46.41723 | 8.62103 | 17947 ft | 208 kts | 178° |
| 2026-05-06 18:37 | 46.40765 | 8.62237 | 17921 ft | 209 kts | 178° |
| 2026-05-06 18:37 | 46.38846 | 8.62506 | 17878 ft | 205 kts | 178° |
| 2026-05-06 18:37 | 46.37437 | 8.62707 | 17899 ft | 203 kts | 178° |
| 2026-05-06 18:38 | 46.36026 | 8.62908 | 17906 ft | 203 kts | 178° |
| 2026-05-06 18:38 | 46.34617 | 8.63106 | 17889 ft | 203 kts | 178° |
| 2026-05-06 18:38 | 46.33232 | 8.63308 | 17907 ft | 202 kts | 178° |
| 2026-05-06 18:38 | 46.31836 | 8.63507 | 17871 ft | 201 kts | 178° |
| 2026-05-06 18:39 | 46.30441 | 8.63696 | 17902 ft | 202 kts | 178° |
| 2026-05-06 18:39 | 46.29029 | 8.63888 | 17911 ft | 206 kts | 178° |
| 2026-05-06 18:39 | 46.27599 | 8.64088 | 17892 ft | 207 kts | 178° |
| 2026-05-06 18:40 | 46.24744 | 8.64488 | 17869 ft | 204 kts | 178° |
| 2026-05-06 18:40 | 46.23338 | 8.64687 | 17852 ft | 201 kts | 179° |
| 2026-05-06 18:40 | 46.21941 | 8.64887 | 17884 ft | 201 kts | 178° |
| 2026-05-06 18:40 | 46.20548 | 8.65084 | 17863 ft | 200 kts | 178° |
| 2026-05-06 18:41 | 46.19153 | 8.65279 | 17894 ft | 202 kts | 178° |
| 2026-05-06 18:41 | 46.17748 | 8.65473 | 17885 ft | 203 kts | 178° |
| 2026-05-06 18:41 | 46.16335 | 8.65671 | 17883 ft | 204 kts | 179° |
| 2026-05-06 18:41 | 46.14924 | 8.65868 | 17885 ft | 204 kts | 178° |
| 2026-05-06 18:42 | 46.13521 | 8.66063 | 17854 ft | 201 kts | 179° |
| 2026-05-06 18:42 | 46.12133 | 8.66258 | 17876 ft | 200 kts | 178° |
| 2026-05-06 18:42 | 46.10765 | 8.66450 | 17896 ft | 200 kts | 178° |
| 2026-05-06 18:42 | 46.09375 | 8.66639 | 17894 ft | 201 kts | 179° |
| 2026-05-06 18:43 | 46.07979 | 8.66814 | 17891 ft | 202 kts | 179° |
| 2026-05-06 18:43 | 46.06576 | 8.66986 | 17902 ft | 203 kts | 179° |
| 2026-05-06 18:43 | 46.05163 | 8.67156 | 17846 ft | 202 kts | 179° |
| 2026-05-06 18:43 | 46.03775 | 8.67329 | 17847 ft | 199 kts | 179° |
| 2026-05-06 18:44 | 46.02391 | 8.67501 | 17876 ft | 201 kts | 179° |
| 2026-05-06 18:44 | 46.00995 | 8.67672 | 17877 ft | 202 kts | 179° |
| 2026-05-06 18:44 | 45.99593 | 8.67843 | 17879 ft | 202 kts | 179° |
| 2026-05-06 18:44 | 45.98191 | 8.68014 | 17883 ft | 202 kts | 179° |
| 2026-05-06 18:45 | 45.96789 | 8.68186 | 17882 ft | 203 kts | 179° |
| 2026-05-06 18:45 | 45.95383 | 8.68360 | 17880 ft | 203 kts | 179° |
| 2026-05-06 18:45 | 45.93974 | 8.68533 | 17881 ft | 203 kts | 179° |
| 2026-05-06 18:45 | 45.93047 | 8.68648 | 17857 ft | 201 kts | 179° |
| 2026-05-06 18:46 | 45.91186 | 8.68880 | 17895 ft | 201 kts | 179° |
| 2026-05-06 18:46 | 45.89804 | 8.69050 | 17896 ft | 203 kts | 179° |
| 2026-05-06 18:46 | 45.88397 | 8.69222 | 17886 ft | 203 kts | 179° |
| 2026-05-06 18:46 | 45.86983 | 8.69396 | 17885 ft | 204 kts | 179° |
| 2026-05-06 18:47 | 45.85566 | 8.69570 | 17891 ft | 205 kts | 179° |
| 2026-05-06 18:47 | 45.84145 | 8.69746 | 17867 ft | 205 kts | 179° |
| 2026-05-06 18:47 | 45.82722 | 8.69921 | 17872 ft | 205 kts | 179° |
| 2026-05-06 18:47 | 45.81290 | 8.70097 | 17876 ft | 207 kts | 179° |
| 2026-05-06 18:48 | 45.79850 | 8.70273 | 17868 ft | 208 kts | 179° |
| 2026-05-06 18:48 | 45.78425 | 8.70448 | 17856 ft | 208 kts | 179° |
| 2026-05-06 18:48 | 45.76984 | 8.70626 | 17852 ft | 207 kts | 179° |
| 2026-05-06 18:48 | 45.75532 | 8.70805 | 17847 ft | 206 kts | 179° |
| 2026-05-06 18:49 | 45.74106 | 8.70980 | 17856 ft | 205 kts | 179° |
| 2026-05-06 18:49 | 45.72703 | 8.71152 | 17855 ft | 205 kts | 179° |
| 2026-05-06 18:49 | 45.71277 | 8.71327 | 17855 ft | 205 kts | 179° |
| 2026-05-06 18:49 | 45.69853 | 8.71501 | 17854 ft | 205 kts | 179° |
| 2026-05-06 18:50 | 45.68429 | 8.71675 | 17863 ft | 206 kts | 179° |
| 2026-05-06 18:50 | 45.66999 | 8.71851 | 17862 ft | 207 kts | 179° |
| 2026-05-06 18:50 | 45.65566 | 8.72025 | 17855 ft | 207 kts | 179° |
| 2026-05-06 18:50 | 45.64130 | 8.72200 | 17855 ft | 207 kts | 179° |
| 2026-05-06 18:51 | 45.62695 | 8.72376 | 17853 ft | 207 kts | 179° |
| 2026-05-06 18:51 | 45.61262 | 8.72550 | 17855 ft | 207 kts | 179° |
| 2026-05-06 18:51 | 45.59829 | 8.72725 | 17855 ft | 207 kts | 179° |
| 2026-05-06 18:51 | 45.58393 | 8.72901 | 17857 ft | 207 kts | 179° |
| 2026-05-06 18:52 | 45.56960 | 8.73075 | 17856 ft | 207 kts | 179° |
| 2026-05-06 18:52 | 45.55529 | 8.73250 | 17855 ft | 207 kts | 179° |
| 2026-05-06 18:52 | 45.54114 | 8.73422 | 17865 ft | 207 kts | 179° |
| 2026-05-06 18:52 | 45.52671 | 8.73598 | 17861 ft | 208 kts | 179° |
| 2026-05-06 18:53 | 45.51225 | 8.73773 | 17852 ft | 209 kts | 179° |
| 2026-05-06 18:53 | 45.49779 | 8.73949 | 17849 ft | 208 kts | 179° |
| 2026-05-06 18:53 | 45.48338 | 8.74124 | 17853 ft | 208 kts | 179° |
| 2026-05-06 18:53 | 45.46896 | 8.74300 | 17852 ft | 208 kts | 179° |
| 2026-05-06 18:54 | 45.45943 | 8.74416 | 17855 ft | 208 kts | 179° |
| 2026-05-06 18:54 | 45.44500 | 8.74591 | 17854 ft | 208 kts | 179° |
| 2026-05-06 18:54 | 45.43057 | 8.74766 | 17911 ft | 208 kts | 179° |
| 2026-05-06 18:54 | 45.41611 | 8.74941 | 17910 ft | 208 kts | 179° |
| 2026-05-06 18:55 | 45.40168 | 8.75116 | 17908 ft | 208 kts | 179° |
| 2026-05-06 18:55 | 45.38722 | 8.75291 | 17907 ft | 208 kts | 179° |
| 2026-05-06 18:55 | 45.37276 | 8.75466 | 17908 ft | 208 kts | 179° |
| 2026-05-06 18:55 | 45.35831 | 8.75641 | 17909 ft | 209 kts | 180° |
| 2026-05-06 18:56 | 45.34380 | 8.75817 | 17908 ft | 209 kts | 180° |
| 2026-05-06 18:56 | 45.32930 | 8.75991 | 17909 ft | 209 kts | 180° |
| 2026-05-06 18:56 | 45.31482 | 8.76167 | 17907 ft | 209 kts | 180° |
| 2026-05-06 18:56 | 45.30030 | 8.76342 | 17909 ft | 209 kts | 180° |
| 2026-05-06 18:57 | 45.28579 | 8.76517 | 17909 ft | 209 kts | 180° |
| 2026-05-06 18:57 | 45.27126 | 8.76692 | 17915 ft | 210 kts | 180° |
| 2026-05-06 18:57 | 45.25666 | 8.76867 | 17908 ft | 211 kts | 180° |
| 2026-05-06 18:57 | 45.24204 | 8.77043 | 17902 ft | 211 kts | 180° |
| 2026-05-06 18:58 | 45.22742 | 8.77220 | 17900 ft | 211 kts | 180° |
| 2026-05-06 18:58 | 45.21299 | 8.77394 | 17841 ft | 210 kts | 180° |
| 2026-05-06 18:58 | 45.19842 | 8.77569 | 17836 ft | 210 kts | 180° |
| 2026-05-06 18:58 | 45.18385 | 8.77745 | 17833 ft | 210 kts | 180° |
| 2026-05-06 18:59 | 45.16928 | 8.77920 | 17830 ft | 210 kts | 180° |
| 2026-05-06 18:59 | 45.15471 | 8.78095 | 17829 ft | 210 kts | 180° |
| 2026-05-06 18:59 | 45.14015 | 8.78270 | 17830 ft | 210 kts | 180° |
| 2026-05-06 18:59 | 45.12560 | 8.78444 | 17831 ft | 210 kts | 180° |
| 2026-05-06 19:00 | 45.11098 | 8.78619 | 17828 ft | 210 kts | 180° |
| 2026-05-06 19:00 | 45.09643 | 8.78794 | 17832 ft | 210 kts | 180° |
| 2026-05-06 19:00 | 45.08185 | 8.78969 | 17826 ft | 210 kts | 180° |
| 2026-05-06 19:00 | 45.06730 | 8.79143 | 17828 ft | 210 kts | 180° |
| 2026-05-06 19:01 | 45.05276 | 8.79317 | 17828 ft | 209 kts | 181° |
| 2026-05-06 19:01 | 45.03844 | 8.79488 | 17827 ft | 209 kts | 181° |
| 2026-05-06 19:01 | 45.02393 | 8.79661 | 17832 ft | 210 kts | 180° |
| 2026-05-06 19:01 | 45.00971 | 8.79831 | 17831 ft | 210 kts | 180° |
| 2026-05-06 19:02 | 44.99517 | 8.80005 | 17831 ft | 210 kts | 180° |
| 2026-05-06 19:02 | 44.98064 | 8.80179 | 17833 ft | 209 kts | 181° |
| 2026-05-06 19:02 | 44.96610 | 8.80352 | 17832 ft | 209 kts | 181° |
| 2026-05-06 19:02 | 44.95159 | 8.80526 | 17829 ft | 209 kts | 181° |
| 2026-05-06 19:03 | 44.93708 | 8.80699 | 17836 ft | 209 kts | 181° |
| 2026-05-06 19:03 | 44.92258 | 8.80871 | 17839 ft | 209 kts | 181° |
| 2026-05-06 19:03 | 44.90807 | 8.81044 | 17840 ft | 209 kts | 181° |
| 2026-05-06 19:03 | 44.89358 | 8.81216 | 17843 ft | 209 kts | 181° |
| 2026-05-06 19:04 | 44.87904 | 8.81389 | 17843 ft | 209 kts | 181° |
| 2026-05-06 19:04 | 44.86456 | 8.81561 | 17849 ft | 209 kts | 181° |
| 2026-05-06 19:04 | 44.85005 | 8.81733 | 17849 ft | 209 kts | 181° |
| 2026-05-06 19:04 | 44.83553 | 8.81906 | 17850 ft | 209 kts | 181° |
| 2026-05-06 19:05 | 44.82101 | 8.82079 | 17854 ft | 209 kts | 181° |
| 2026-05-06 19:05 | 44.80650 | 8.82251 | 17859 ft | 209 kts | 181° |
| 2026-05-06 19:05 | 44.79196 | 8.82423 | 17858 ft | 209 kts | 181° |
| 2026-05-06 19:05 | 44.77744 | 8.82595 | 17862 ft | 209 kts | 181° |
| 2026-05-06 19:06 | 44.76293 | 8.82767 | 17862 ft | 209 kts | 181° |
| 2026-05-06 19:06 | 44.74839 | 8.82939 | 17871 ft | 210 kts | 181° |
| 2026-05-06 19:06 | 44.73388 | 8.83111 | 17882 ft | 210 kts | 181° |
| 2026-05-06 19:06 | 44.71936 | 8.83283 | 17878 ft | 209 kts | 181° |
| 2026-05-06 19:07 | 44.70502 | 8.83453 | 17881 ft | 209 kts | 181° |
| 2026-05-06 19:07 | 44.69056 | 8.83627 | 17879 ft | 209 kts | 181° |
| 2026-05-06 19:07 | 44.67608 | 8.83796 | 17893 ft | 209 kts | 182° |
| 2026-05-06 19:07 | 44.66160 | 8.83963 | 17894 ft | 209 kts | 182° |
| 2026-05-06 19:08 | 44.64709 | 8.84136 | 17892 ft | 209 kts | 182° |
| 2026-05-06 19:08 | 44.63255 | 8.84308 | 17907 ft | 210 kts | 182° |
| 2026-05-06 19:08 | 44.61799 | 8.84477 | 17903 ft | 210 kts | 182° |
| 2026-05-06 19:08 | 44.60344 | 8.84649 | 17899 ft | 210 kts | 182° |
| 2026-05-06 19:09 | 44.58893 | 8.84828 | 17896 ft | 209 kts | 182° |
| 2026-05-06 19:09 | 44.57450 | 8.84997 | 17891 ft | 207 kts | 182° |
| 2026-05-06 19:09 | 44.56021 | 8.85164 | 17894 ft | 206 kts | 182° |
| 2026-05-06 19:09 | 44.54589 | 8.85330 | 17909 ft | 206 kts | 182° |
| 2026-05-06 19:10 | 44.53163 | 8.85494 | 17916 ft | 206 kts | 182° |
| 2026-05-06 19:10 | 44.51734 | 8.85661 | 17914 ft | 207 kts | 182° |
| 2026-05-06 19:10 | 44.50294 | 8.85831 | 17916 ft | 207 kts | 182° |
| 2026-05-06 19:10 | 44.48855 | 8.86002 | 17915 ft | 208 kts | 182° |
| 2026-05-06 19:11 | 44.47408 | 8.86172 | 17915 ft | 209 kts | 183° |
| 2026-05-06 19:11 | 44.45952 | 8.86342 | 17913 ft | 210 kts | 182° |
| 2026-05-06 19:11 | 44.44496 | 8.86514 | 17911 ft | 211 kts | 183° |
| 2026-05-06 19:11 | 44.43032 | 8.86684 | 17909 ft | 211 kts | 182° |
| 2026-05-06 19:12 | 44.41568 | 8.86853 | 17905 ft | 211 kts | 183° |
| 2026-05-06 19:12 | 44.40106 | 8.87025 | 17905 ft | 210 kts | 182° |
| 2026-05-06 19:12 | 44.38648 | 8.87196 | 17907 ft | 210 kts | 182° |
| 2026-05-06 19:12 | 44.37194 | 8.87367 | 17907 ft | 210 kts | 182° |
| 2026-05-06 19:13 | 44.35759 | 8.87535 | 17906 ft | 209 kts | 183° |
| 2026-05-06 19:13 | 44.34309 | 8.87705 | 17910 ft | 209 kts | 182° |
| 2026-05-06 19:13 | 44.32861 | 8.87874 | 17912 ft | 209 kts | 183° |
| 2026-05-06 19:13 | 44.31411 | 8.88043 | 17909 ft | 209 kts | 183° |
| 2026-05-06 19:14 | 44.29960 | 8.88212 | 17909 ft | 209 kts | 183° |
| 2026-05-06 19:14 | 44.28512 | 8.88381 | 17908 ft | 209 kts | 183° |
| 2026-05-06 19:14 | 44.27066 | 8.88549 | 17907 ft | 208 kts | 183° |
| 2026-05-06 19:14 | 44.25622 | 8.88718 | 17902 ft | 208 kts | 183° |
| 2026-05-06 19:15 | 44.24178 | 8.88886 | 17905 ft | 208 kts | 183° |
| 2026-05-06 19:15 | 44.22732 | 8.89054 | 17904 ft | 208 kts | 183° |
| 2026-05-06 19:15 | 44.21290 | 8.89222 | 17903 ft | 208 kts | 183° |
| 2026-05-06 19:15 | 44.19850 | 8.89389 | 17901 ft | 208 kts | 183° |
| 2026-05-06 19:16 | 44.18409 | 8.89556 | 17903 ft | 208 kts | 183° |
| 2026-05-06 19:16 | 44.16969 | 8.89723 | 17904 ft | 207 kts | 183° |
| 2026-05-06 19:16 | 44.15532 | 8.89890 | 17901 ft | 207 kts | 183° |
| 2026-05-06 19:16 | 44.14097 | 8.90057 | 17899 ft | 207 kts | 183° |
| 2026-05-06 19:17 | 44.12658 | 8.90223 | 17899 ft | 207 kts | 183° |
| 2026-05-06 19:17 | 44.11224 | 8.90389 | 17896 ft | 207 kts | 183° |
| 2026-05-06 19:17 | 44.09787 | 8.90555 | 17893 ft | 207 kts | 183° |
| 2026-05-06 19:17 | 44.08370 | 8.90719 | 17896 ft | 207 kts | 183° |
| 2026-05-06 19:18 | 44.06935 | 8.90886 | 17895 ft | 207 kts | 183° |
| 2026-05-06 19:18 | 44.05505 | 8.91051 | 17896 ft | 206 kts | 183° |
| 2026-05-06 19:18 | 44.04072 | 8.91217 | 17895 ft | 206 kts | 183° |
| 2026-05-06 19:18 | 44.02643 | 8.91382 | 17897 ft | 206 kts | 183° |
| 2026-05-06 19:19 | 44.01212 | 8.91548 | 17897 ft | 206 kts | 183° |
| 2026-05-06 19:19 | 43.99782 | 8.91713 | 17893 ft | 206 kts | 184° |
| 2026-05-06 19:19 | 43.98354 | 8.91878 | 17896 ft | 206 kts | 184° |
| 2026-05-06 19:19 | 43.96928 | 8.92042 | 17899 ft | 206 kts | 184° |
| 2026-05-06 19:20 | 43.95514 | 8.92205 | 17897 ft | 206 kts | 184° |
| 2026-05-06 19:20 | 43.94089 | 8.92369 | 17900 ft | 206 kts | 183° |
| 2026-05-06 19:20 | 43.92663 | 8.92533 | 17899 ft | 206 kts | 184° |
| 2026-05-06 19:20 | 43.91236 | 8.92697 | 17896 ft | 206 kts | 183° |
| 2026-05-06 19:21 | 43.89807 | 8.92862 | 17903 ft | 206 kts | 184° |
| 2026-05-06 19:21 | 43.88379 | 8.93026 | 17902 ft | 206 kts | 184° |
| 2026-05-06 19:21 | 43.86951 | 8.93190 | 17903 ft | 206 kts | 184° |
| 2026-05-06 19:21 | 43.85521 | 8.93354 | 17907 ft | 206 kts | 184° |
| 2026-05-06 19:22 | 43.84094 | 8.93518 | 17903 ft | 206 kts | 184° |
| 2026-05-06 19:22 | 43.82664 | 8.93682 | 17905 ft | 206 kts | 184° |
| 2026-05-06 19:22 | 43.81236 | 8.93846 | 17903 ft | 206 kts | 184° |
| 2026-05-06 19:22 | 43.79807 | 8.94010 | 17902 ft | 206 kts | 184° |
| 2026-05-06 19:23 | 43.78377 | 8.94174 | 17904 ft | 206 kts | 184° |
| 2026-05-06 19:23 | 43.76947 | 8.94338 | 17905 ft | 206 kts | 184° |
| 2026-05-06 19:23 | 43.75517 | 8.94501 | 17909 ft | 206 kts | 184° |
| 2026-05-06 19:23 | 43.74087 | 8.94665 | 17909 ft | 206 kts | 184° |
| 2026-05-06 19:24 | 43.72658 | 8.94829 | 17907 ft | 206 kts | 184° |
| 2026-05-06 19:24 | 43.71226 | 8.94993 | 17906 ft | 206 kts | 184° |
| 2026-05-06 19:24 | 43.69794 | 8.95156 | 17910 ft | 206 kts | 184° |
| 2026-05-06 19:24 | 43.68382 | 8.95317 | 17909 ft | 206 kts | 184° |
| 2026-05-06 19:25 | 43.66949 | 8.95481 | 17906 ft | 206 kts | 184° |
| 2026-05-06 19:25 | 43.65519 | 8.95645 | 17913 ft | 206 kts | 184° |
| 2026-05-06 19:25 | 43.64091 | 8.95808 | 17910 ft | 206 kts | 184° |
| 2026-05-06 19:25 | 43.62666 | 8.95938 | 17907 ft | 204 kts | 186° |
| 2026-05-06 19:26 | 43.61249 | 8.95957 | 17913 ft | 203 kts | 188° |
| 2026-05-06 19:26 | 43.59838 | 8.95934 | 17911 ft | 203 kts | 189° |
| 2026-05-06 19:26 | 43.58427 | 8.95903 | 17913 ft | 203 kts | 189° |
| 2026-05-06 19:26 | 43.57012 | 8.95878 | 17913 ft | 203 kts | 189° |
| 2026-05-06 19:27 | 43.55601 | 8.95860 | 17913 ft | 203 kts | 188° |
| 2026-05-06 19:27 | 43.54204 | 8.95849 | 17909 ft | 203 kts | 188° |
| 2026-05-06 19:27 | 43.52792 | 8.95843 | 17913 ft | 203 kts | 188° |
| 2026-05-06 19:27 | 43.51377 | 8.95838 | 17815 ft | 207 kts | 188° |
| 2026-05-06 19:28 | 43.49902 | 8.95828 | 17551 ft | 216 kts | 188° |
| 2026-05-06 19:28 | 43.48381 | 8.95819 | 17288 ft | 221 kts | 187° |
| 2026-05-06 19:28 | 43.46827 | 8.95815 | 17023 ft | 225 kts | 187° |
| 2026-05-06 19:28 | 43.45277 | 8.95819 | 16950 ft | 220 kts | 186° |
| 2026-05-06 19:29 | 43.43767 | 8.95829 | 16933 ft | 214 kts | 187° |
| 2026-05-06 19:29 | 43.42303 | 8.95705 | 16924 ft | 207 kts | 193° |
| 2026-05-06 19:29 | 43.40898 | 8.95404 | 16921 ft | 203 kts | 197° |
| 2026-05-06 19:29 | 43.39524 | 8.95029 | 16922 ft | 200 kts | 198° |
| 2026-05-06 19:30 | 43.38169 | 8.94638 | 16923 ft | 198 kts | 198° |
| 2026-05-06 19:30 | 43.36822 | 8.94248 | 16922 ft | 197 kts | 198° |
| 2026-05-06 19:30 | 43.35481 | 8.93866 | 16920 ft | 197 kts | 198° |
| 2026-05-06 19:30 | 43.34143 | 8.93492 | 16923 ft | 196 kts | 198° |
| 2026-05-06 19:31 | 43.32806 | 8.93123 | 16923 ft | 196 kts | 197° |
| 2026-05-06 19:31 | 43.31472 | 8.92758 | 16924 ft | 195 kts | 197° |
| 2026-05-06 19:31 | 43.28806 | 8.92037 | 16923 ft | 195 kts | 197° |
| 2026-05-06 19:32 | 43.27471 | 8.91677 | 16921 ft | 195 kts | 197° |
| 2026-05-06 19:32 | 43.26140 | 8.91319 | 16927 ft | 195 kts | 197° |
| 2026-05-06 19:32 | 43.24806 | 8.90960 | 16927 ft | 195 kts | 197° |
| 2026-05-06 19:32 | 43.23487 | 8.90605 | 16927 ft | 195 kts | 197° |
| 2026-05-06 19:33 | 43.22152 | 8.90247 | 16928 ft | 196 kts | 197° |
| 2026-05-06 19:33 | 43.20816 | 8.89888 | 16926 ft | 196 kts | 197° |
| 2026-05-06 19:33 | 43.19481 | 8.89530 | 16931 ft | 196 kts | 197° |
| 2026-05-06 19:33 | 43.18142 | 8.89171 | 16930 ft | 196 kts | 197° |
| 2026-05-06 19:34 | 43.16804 | 8.88812 | 16928 ft | 196 kts | 197° |
| 2026-05-06 19:34 | 43.15467 | 8.88454 | 16930 ft | 196 kts | 197° |
| 2026-05-06 19:34 | 43.14126 | 8.88095 | 16932 ft | 196 kts | 197° |
| 2026-05-06 19:34 | 43.12786 | 8.87736 | 16932 ft | 196 kts | 197° |
| 2026-05-06 19:35 | 43.11446 | 8.87378 | 16933 ft | 196 kts | 197° |
| 2026-05-06 19:35 | 43.10105 | 8.87019 | 16933 ft | 196 kts | 197° |
| 2026-05-06 19:35 | 43.08764 | 8.86661 | 16933 ft | 196 kts | 197° |
| 2026-05-06 19:35 | 43.07424 | 8.86303 | 16934 ft | 196 kts | 197° |
| 2026-05-06 19:36 | 43.06081 | 8.85944 | 16936 ft | 196 kts | 197° |
| 2026-05-06 19:36 | 43.04741 | 8.85586 | 16937 ft | 196 kts | 197° |
| 2026-05-06 19:36 | 43.03414 | 8.85232 | 16938 ft | 197 kts | 197° |
| 2026-05-06 19:36 | 43.02071 | 8.84874 | 16939 ft | 196 kts | 197° |
| 2026-05-06 19:37 | 43.00728 | 8.84516 | 16936 ft | 196 kts | 197° |
| 2026-05-06 19:37 | 42.99385 | 8.84158 | 16935 ft | 196 kts | 197° |
| 2026-05-06 19:37 | 42.98041 | 8.83800 | 16939 ft | 196 kts | 197° |
| 2026-05-06 19:37 | 42.97152 | 8.83563 | 16939 ft | 197 kts | 197° |
| 2026-05-06 19:38 | 42.95354 | 8.83084 | 16939 ft | 197 kts | 197° |
| 2026-05-06 19:38 | 42.94009 | 8.82727 | 16939 ft | 197 kts | 197° |
| 2026-05-06 19:38 | 42.92663 | 8.82369 | 16938 ft | 197 kts | 197° |
| 2026-05-06 19:38 | 42.91319 | 8.82012 | 16939 ft | 197 kts | 197° |
| 2026-05-06 19:39 | 42.89991 | 8.81660 | 16937 ft | 197 kts | 197° |
| 2026-05-06 19:39 | 42.88647 | 8.81303 | 16939 ft | 197 kts | 197° |
| 2026-05-06 19:39 | 42.87304 | 8.80946 | 16937 ft | 197 kts | 197° |
| 2026-05-06 19:39 | 42.85960 | 8.80590 | 16939 ft | 197 kts | 197° |
| 2026-05-06 19:40 | 42.84614 | 8.80233 | 16940 ft | 197 kts | 197° |
| 2026-05-06 19:40 | 42.83266 | 8.79875 | 16943 ft | 197 kts | 197° |
| 2026-05-06 19:40 | 42.81920 | 8.79519 | 16944 ft | 197 kts | 196° |
| 2026-05-06 19:40 | 42.80574 | 8.79162 | 16946 ft | 197 kts | 197° |
| 2026-05-06 19:41 | 42.79225 | 8.78805 | 16952 ft | 198 kts | 196° |
| 2026-05-06 19:41 | 42.78336 | 8.78591 | 16951 ft | 191 kts | 193° |
| 2026-05-06 19:41 | 42.77017 | 8.78292 | 16950 ft | 193 kts | 196° |
| 2026-05-06 19:41 | 42.75697 | 8.77927 | 16948 ft | 194 kts | 197° |
| 2026-05-06 19:42 | 42.74368 | 8.77551 | 16952 ft | 195 kts | 197° |
| 2026-05-06 19:42 | 42.73029 | 8.77180 | 16952 ft | 196 kts | 197° |
| 2026-05-06 19:42 | 42.71685 | 8.76816 | 16955 ft | 197 kts | 196° |
| 2026-05-06 19:42 | 42.70339 | 8.76456 | 16957 ft | 198 kts | 196° |
| 2026-05-06 19:43 | 42.68985 | 8.76097 | 16955 ft | 198 kts | 196° |
| 2026-05-06 19:43 | 42.67630 | 8.75739 | 16959 ft | 198 kts | 196° |
| 2026-05-06 19:43 | 42.66275 | 8.75382 | 16959 ft | 199 kts | 196° |
| 2026-05-06 19:43 | 42.64934 | 8.75029 | 16961 ft | 199 kts | 196° |
| 2026-05-06 19:44 | 42.63575 | 8.74671 | 16963 ft | 199 kts | 196° |
| 2026-05-06 19:44 | 42.62216 | 8.74314 | 16963 ft | 199 kts | 196° |
| 2026-05-06 19:44 | 42.60854 | 8.73955 | 16964 ft | 199 kts | 196° |
| 2026-05-06 19:44 | 42.59493 | 8.73598 | 16965 ft | 199 kts | 196° |
| 2026-05-06 19:45 | 42.58131 | 8.73240 | 16963 ft | 199 kts | 196° |
| 2026-05-06 19:45 | 42.56768 | 8.72882 | 16965 ft | 199 kts | 196° |
| 2026-05-06 19:45 | 42.55405 | 8.72524 | 16973 ft | 200 kts | 196° |
| 2026-05-06 19:45 | 42.54030 | 8.72163 | 16970 ft | 201 kts | 196° |
| 2026-05-06 19:46 | 42.52652 | 8.71799 | 16973 ft | 202 kts | 196° |
| 2026-05-06 19:46 | 42.51271 | 8.71435 | 16942 ft | 201 kts | 197° |
| 2026-05-06 19:46 | 42.49900 | 8.71078 | 16969 ft | 201 kts | 196° |
| 2026-05-06 19:46 | 42.48525 | 8.70717 | 16971 ft | 202 kts | 196° |
| 2026-05-06 19:47 | 42.47143 | 8.70355 | 16968 ft | 202 kts | 196° |
| 2026-05-06 19:47 | 42.45762 | 8.69994 | 16967 ft | 202 kts | 196° |
| 2026-05-06 19:47 | 42.44382 | 8.69632 | 16966 ft | 202 kts | 196° |
| 2026-05-06 19:47 | 42.43018 | 8.69276 | 16956 ft | 202 kts | 196° |
| 2026-05-06 19:48 | 42.41623 | 8.68913 | 16961 ft | 202 kts | 196° |
| 2026-05-06 19:48 | 42.40228 | 8.68543 | 16787 ft | 209 kts | 196° |
| 2026-05-06 19:48 | 42.38773 | 8.68155 | 16527 ft | 216 kts | 195° |
| 2026-05-06 19:48 | 42.37280 | 8.67762 | 16271 ft | 221 kts | 195° |
| 2026-05-06 19:49 | 42.35782 | 8.67370 | 16031 ft | 224 kts | 195° |
| 2026-05-06 19:49 | 42.34247 | 8.66970 | 15788 ft | 226 kts | 195° |
| 2026-05-06 19:49 | 42.32698 | 8.66565 | 15539 ft | 227 kts | 195° |
| 2026-05-06 19:49 | 42.31141 | 8.66161 | 15283 ft | 228 kts | 195° |
| 2026-05-06 19:50 | 42.29588 | 8.65758 | 15031 ft | 227 kts | 195° |
| 2026-05-06 19:50 | 42.28038 | 8.65355 | 14780 ft | 226 kts | 195° |
| 2026-05-06 19:50 | 42.26496 | 8.64955 | 14535 ft | 225 kts | 195° |
| 2026-05-06 19:50 | 42.24962 | 8.64556 | 14299 ft | 224 kts | 195° |
| 2026-05-06 19:51 | 42.23432 | 8.64157 | 14065 ft | 223 kts | 195° |
| 2026-05-06 19:51 | 42.21905 | 8.63760 | 13828 ft | 223 kts | 195° |
| 2026-05-06 19:51 | 42.20386 | 8.63366 | 13558 ft | 221 kts | 195° |
| 2026-05-06 19:51 | 42.18873 | 8.62974 | 13304 ft | 221 kts | 195° |
| 2026-05-06 19:52 | 42.17384 | 8.62588 | 13041 ft | 220 kts | 195° |
| 2026-05-06 19:52 | 42.15881 | 8.62198 | 12778 ft | 219 kts | 195° |
| 2026-05-06 19:52 | 42.14384 | 8.61810 | 12514 ft | 219 kts | 195° |
| 2026-05-06 19:52 | 42.12891 | 8.61424 | 12255 ft | 218 kts | 195° |
| 2026-05-06 19:53 | 42.11404 | 8.61039 | 11996 ft | 217 kts | 195° |
| 2026-05-06 19:53 | 42.09926 | 8.60656 | 11739 ft | 216 kts | 195° |
| 2026-05-06 19:53 | 42.08454 | 8.60275 | 11486 ft | 215 kts | 195° |
| 2026-05-06 19:53 | 42.06987 | 8.59896 | 11238 ft | 214 kts | 195° |
| 2026-05-06 19:54 | 42.05527 | 8.59519 | 10991 ft | 213 kts | 195° |
| 2026-05-06 19:54 | 42.04075 | 8.59144 | 10743 ft | 210 kts | 195° |
| 2026-05-06 19:54 | 42.02647 | 8.58777 | 10499 ft | 208 kts | 195° |
| 2026-05-06 19:54 | 42.01234 | 8.58413 | 10259 ft | 206 kts | 195° |
| 2026-05-06 19:55 | 41.99832 | 8.58052 | 10018 ft | 204 kts | 195° |
| 2026-05-06 19:55 | 41.98438 | 8.57692 | 9770 ft | 203 kts | 195° |
| 2026-05-06 19:55 | 41.97049 | 8.57334 | 9504 ft | 203 kts | 195° |
| 2026-05-06 19:55 | 41.95666 | 8.56977 | 9238 ft | 202 kts | 195° |
| 2026-05-06 19:56 | 41.94285 | 8.56621 | 8981 ft | 202 kts | 195° |
| 2026-05-06 19:56 | 41.92907 | 8.56266 | 8720 ft | 201 kts | 195° |
| 2026-05-06 19:56 | 41.91548 | 8.55916 | 8468 ft | 201 kts | 195° |
| 2026-05-06 19:56 | 41.90173 | 8.55562 | 8210 ft | 201 kts | 194° |
| 2026-05-06 19:57 | 41.88798 | 8.55209 | 7957 ft | 201 kts | 194° |
| 2026-05-06 19:57 | 41.87427 | 8.54856 | 7703 ft | 201 kts | 194° |
| 2026-05-06 19:57 | 41.86057 | 8.54504 | 7457 ft | 200 kts | 194° |
| 2026-05-06 19:57 | 41.84686 | 8.54152 | 7208 ft | 200 kts | 194° |
| 2026-05-06 19:58 | 41.83318 | 8.53801 | 6960 ft | 200 kts | 194° |
| 2026-05-06 19:58 | 41.81948 | 8.53450 | 6716 ft | 200 kts | 193° |
| 2026-05-06 19:58 | 41.80583 | 8.53100 | 6475 ft | 200 kts | 193° |
| 2026-05-06 19:58 | 41.79231 | 8.52753 | 6226 ft | 200 kts | 193° |
| 2026-05-06 19:59 | 41.77865 | 8.52403 | 5971 ft | 199 kts | 193° |
| 2026-05-06 19:59 | 41.76502 | 8.52054 | 5716 ft | 199 kts | 193° |
| 2026-05-06 19:59 | 41.75142 | 8.51705 | 5465 ft | 199 kts | 193° |
| 2026-05-06 19:59 | 41.73784 | 8.51358 | 5209 ft | 199 kts | 193° |
| 2026-05-06 20:00 | 41.72439 | 8.51016 | 5067 ft | 194 kts | 193° |
| 2026-05-06 20:00 | 41.71110 | 8.50677 | 4893 ft | 195 kts | 193° |
| 2026-05-06 20:00 | 41.69775 | 8.50335 | 4711 ft | 195 kts | 193° |
| 2026-05-06 20:00 | 41.68437 | 8.49993 | 4532 ft | 195 kts | 193° |
| 2026-05-06 20:01 | 41.67100 | 8.49651 | 4348 ft | 195 kts | 193° |
| 2026-05-06 20:01 | 41.65754 | 8.49440 | 4168 ft | 197 kts | 176° |
| 2026-05-06 20:01 | 41.64521 | 8.50207 | 3992 ft | 201 kts | 137° |
| 2026-05-06 20:01 | 41.63896 | 8.51849 | 3817 ft | 202 kts | 98° |
| 2026-05-06 20:02 | 41.64099 | 8.53685 | 3642 ft | 201 kts | 68° |
| 2026-05-06 20:02 | 41.64831 | 8.55266 | 3473 ft | 200 kts | 52° |
| 2026-05-06 20:02 | 41.65675 | 8.56750 | 3300 ft | 200 kts | 51° |
| 2026-05-06 20:02 | 41.66510 | 8.58226 | 3121 ft | 199 kts | 52° |
| 2026-05-06 20:03 | 41.67345 | 8.59687 | 3032 ft | 195 kts | 51° |
| 2026-05-06 20:03 | 41.68156 | 8.61104 | 3011 ft | 190 kts | 52° |
| 2026-05-06 20:03 | 41.68942 | 8.62482 | 3005 ft | 187 kts | 52° |
| 2026-05-06 20:03 | 41.69723 | 8.63858 | 3001 ft | 185 kts | 52° |
| 2026-05-06 20:04 | 41.70497 | 8.65225 | 3000 ft | 184 kts | 52° |
| 2026-05-06 20:04 | 41.71269 | 8.66582 | 3001 ft | 183 kts | 50° |
| 2026-05-06 20:04 | 41.72213 | 8.67702 | 2993 ft | 181 kts | 31° |
| 2026-05-06 20:04 | 41.73318 | 8.68495 | 2996 ft | 180 kts | 24° |
| 2026-05-06 20:05 | 41.74465 | 8.69174 | 3001 ft | 180 kts | 21° |
| 2026-05-06 20:05 | 41.75628 | 8.69816 | 3008 ft | 181 kts | 21° |
| 2026-05-06 20:05 | 41.76797 | 8.70462 | 2998 ft | 181 kts | 22° |
| 2026-05-06 20:05 | 41.77937 | 8.71142 | 2948 ft | 177 kts | 25° |
| 2026-05-06 20:06 | 41.79023 | 8.71885 | 2708 ft | 174 kts | 26° |
| 2026-05-06 20:06 | 41.80091 | 8.72620 | 2511 ft | 170 kts | 26° |
| 2026-05-06 20:06 | 41.81147 | 8.73301 | 2261 ft | 166 kts | 24° |
| 2026-05-06 20:06 | 41.82193 | 8.73926 | 2026 ft | 163 kts | 23° |
| 2026-05-06 20:07 | 41.83227 | 8.74527 | 1806 ft | 161 kts | 23° |
| 2026-05-06 20:07 | 41.84246 | 8.75133 | 1574 ft | 159 kts | 24° |
| 2026-05-06 20:07 | 41.85241 | 8.75751 | 1369 ft | 160 kts | 25° |
| 2026-05-06 20:07 | 41.86244 | 8.76399 | 1147 ft | 160 kts | 26° |
| 2026-05-06 20:08 | 41.87246 | 8.77051 | 936 ft | 160 kts | 26° |
| 2026-05-06 20:08 | 41.88252 | 8.77691 | 723 ft | 159 kts | 26° |
| 2026-05-06 20:08 | 41.89222 | 8.78294 | 499 ft | 140 kts | 26° |
| 2026-05-06 20:08 | 41.89985 | 8.78757 | 314 ft | 102 kts | 25° |
| 2026-05-06 20:09 | 41.90620 | 8.79138 | 173 ft | 100 kts | 25° |
| 2026-05-06 20:09 | 41.91243 | 8.79526 | 30 ft | 93 kts | 27° |
| 2026-05-06 20:09 | 41.91713 | 8.79823 | 17 ft | 60 kts | 23° |
| 2026-05-06 20:09 | 41.92021 | 8.80013 | 19 ft | 20 kts | 19° |
| 2026-05-06 20:10 | 41.91994 | 8.80090 | 19 ft | 16 kts | 120° |
| 2026-05-06 20:10 | 41.91951 | 8.80227 | 19 ft | 13 kts | 108° |
| 2026-05-06 20:10 | 41.91951 | 8.80303 | 19 ft | 3 kts | 340° |
| 2026-05-06 20:10 | 41.91958 | 8.80293 | 19 ft | 0 kts | 296° |
| 2026-05-06 20:12 | 41.91958 | 8.80243 | 19 ft | 19 kts | 262° |
| 2026-05-06 20:12 | 41.92008 | 8.80047 | 19 ft | 20 kts | 308° |
| 2026-05-06 20:12 | 41.92314 | 8.80199 | 20 ft | 92 kts | 25° |
| 2026-05-06 20:12 | 41.93034 | 8.80663 | 337 ft | 120 kts | 28° |
| 2026-05-06 20:13 | 41.93784 | 8.81201 | 831 ft | 126 kts | 29° |
| 2026-05-06 20:13 | 41.94359 | 8.82003 | 1342 ft | 116 kts | 74° |
| 2026-05-06 20:13 | 41.94186 | 8.82947 | 1809 ft | 113 kts | 142° |
| 2026-05-06 20:13 | 41.93421 | 8.83192 | 2230 ft | 116 kts | 173° |
| 2026-05-06 20:14 | 41.92634 | 8.83368 | 2718 ft | 117 kts | 169° |
| 2026-05-06 20:14 | 41.91802 | 8.83541 | 3116 ft | 121 kts | 172° |
| 2026-05-06 20:14 | 41.90962 | 8.83799 | 3489 ft | 130 kts | 159° |
| 2026-05-06 20:14 | 41.90002 | 8.83806 | 3585 ft | 152 kts | 191° |
| 2026-05-06 20:15 | 41.88848 | 8.83556 | 3347 ft | 179 kts | 189° |
| 2026-05-06 20:15 | 41.87646 | 8.83605 | 3616 ft | 170 kts | 168° |
| 2026-05-06 20:15 | 41.86527 | 8.84021 | 3869 ft | 163 kts | 165° |
| 2026-05-06 20:15 | 41.85426 | 8.84432 | 3972 ft | 167 kts | 167° |
| 2026-05-06 20:16 | 41.84273 | 8.84796 | 3998 ft | 173 kts | 169° |
| 2026-05-06 20:16 | 41.83086 | 8.85133 | 4004 ft | 176 kts | 170° |
| 2026-05-06 20:16 | 41.81874 | 8.85454 | 4011 ft | 179 kts | 171° |
| 2026-05-06 20:16 | 41.80646 | 8.85766 | 3999 ft | 180 kts | 171° |
| 2026-05-06 20:17 | 41.79415 | 8.86076 | 3987 ft | 180 kts | 171° |
| 2026-05-06 20:17 | 41.78185 | 8.86384 | 3987 ft | 180 kts | 171° |
| 2026-05-06 20:17 | 41.76956 | 8.86690 | 3988 ft | 179 kts | 171° |
| 2026-05-06 20:17 | 41.75728 | 8.86996 | 3998 ft | 180 kts | 171° |
| 2026-05-06 20:18 | 41.74489 | 8.87302 | 4002 ft | 182 kts | 171° |
| 2026-05-06 20:18 | 41.73249 | 8.87622 | 4060 ft | 181 kts | 171° |
| 2026-05-06 20:18 | 41.72021 | 8.87869 | 3997 ft | 167 kts | 190° |
| 2026-05-06 20:18 | 41.71080 | 8.86898 | 3094 ft | 174 kts | 237° |
| 2026-05-06 20:19 | 41.70458 | 8.85602 | 2678 ft | 160 kts | 238° |
| 2026-05-06 20:19 | 41.69745 | 8.84489 | 2174 ft | 159 kts | 219° |
| 2026-05-06 20:19 | 41.68730 | 8.83962 | 1673 ft | 153 kts | 185° |
| 2026-05-06 20:19 | 41.67724 | 8.84137 | 1231 ft | 144 kts | 166° |
| 2026-05-06 20:20 | 41.66810 | 8.84644 | 734 ft | 144 kts | 143° |
| 2026-05-06 20:20 | 41.66337 | 8.85723 | 394 ft | 127 kts | 102° |
| 2026-05-06 20:20 | 41.66221 | 8.86801 | 232 ft | 110 kts | 100° |
| 2026-05-06 20:20 | 41.66141 | 8.87792 | 91 ft | 105 kts | 96° |
| 2026-05-06 20:21 | 41.66084 | 8.88644 | 22 ft | 75 kts | 95° |
| 2026-05-06 20:21 | 41.66040 | 8.89228 | 28 ft | 40 kts | 96° |
| 2026-05-06 20:21 | 41.66003 | 8.89399 | 31 ft | 13 kts | 174° |
| 2026-05-06 20:21 | 41.65929 | 8.89404 | 31 ft | 9 kts | 135° |
| 2026-05-06 20:22 | 41.65915 | 8.89404 | 31 ft | 0 kts | 1° |